createdAt,value
2022-10-11T00:02:07.335Z,1422
2022-10-11T00:07:26.095Z,1444
2022-10-11T00:12:44.924Z,1462
2022-10-11T00:18:05.454Z,1492
2022-10-11T00:23:23.480Z,1520
2022-10-11T00:28:41.761Z,1544
2022-10-11T00:34:00.499Z,1565
2022-10-11T00:39:19.281Z,1578
2022-10-11T00:44:38.063Z,1600
2022-10-11T00:49:57.108Z,1601
2022-10-11T00:55:15.578Z,1612
2022-10-11T01:00:34.350Z,1627
2022-10-11T01:05:52.549Z,1597
2022-10-11T01:11:11.300Z,1556
2022-10-11T01:16:29.804Z,1554
2022-10-11T01:21:48.276Z,1547
2022-10-11T01:27:06.498Z,1525
2022-10-11T01:32:24.989Z,1511
2022-10-11T01:37:43.722Z,1475
2022-10-11T01:43:02.215Z,1449
2022-10-11T01:48:21.029Z,1436
2022-10-11T01:53:38.920Z,1436
2022-10-11T01:58:57.405Z,1441
2022-10-11T02:04:15.917Z,1440
2022-10-11T02:09:34.663Z,1433
2022-10-11T02:14:53.161Z,1427
2022-10-11T02:20:11.944Z,1403
2022-10-11T02:25:30.423Z,1401
2022-10-11T02:30:48.954Z,1399
2022-10-11T02:36:08.043Z,1388
2022-10-11T02:41:27.116Z,1374
2022-10-11T02:46:45.619Z,1360
2022-10-11T02:52:04.410Z,1362
2022-10-11T02:57:22.892Z,1360
2022-10-11T03:02:41.355Z,1346
2022-10-11T03:08:00.187Z,1332
2022-10-11T03:13:18.942Z,1326
2022-10-11T03:18:37.397Z,1325
2022-10-11T03:23:55.934Z,1350
2022-10-11T03:29:13.832Z,1353
2022-10-11T03:34:32.316Z,1368
2022-10-11T03:39:50.636Z,1335
2022-10-11T03:45:09.393Z,1377
2022-10-11T03:50:28.188Z,1348
2022-10-11T03:55:46.697Z,1331
2022-10-11T04:01:04.583Z,1326
2022-10-11T04:06:23.383Z,1324
2022-10-11T04:11:42.176Z,1343
2022-10-11T04:17:00.811Z,1358
2022-10-11T04:22:19.007Z,1355
2022-10-11T04:27:37.331Z,1116
2022-10-11T04:32:56.058Z,866
2022-10-11T04:38:14.288Z,813
2022-10-11T04:43:32.798Z,747
2022-10-11T04:48:51.245Z,689
2022-10-11T04:54:09.457Z,659
2022-10-11T04:59:28.245Z,641
2022-10-11T05:04:46.986Z,627
2022-10-11T05:10:05.498Z,658
2022-10-11T05:15:23.686Z,725
2022-10-11T05:20:41.876Z,765
2022-10-11T05:25:44.498Z,795
2022-10-11T05:31:02.970Z,810
2022-10-11T05:36:21.588Z,820
2022-10-11T05:41:40.070Z,832
2022-10-11T05:46:58.881Z,837
2022-10-11T05:52:17.063Z,846
2022-10-11T05:57:35.292Z,858
2022-10-11T06:02:53.828Z,867
2022-10-11T06:08:12.615Z,870
2022-10-11T06:13:30.523Z,870
2022-10-11T06:18:48.752Z,875
2022-10-11T06:24:07.238Z,884
2022-10-11T06:29:25.977Z,888
2022-10-11T06:34:44.763Z,889
2022-10-11T06:39:48.877Z,893
2022-10-11T06:45:07.654Z,888
2022-10-11T06:50:47.492Z,893
2022-10-11T06:56:23.937Z,886
2022-10-11T07:01:42.674Z,881
2022-10-11T07:07:01.223Z,874
2022-10-11T07:12:19.109Z,881
2022-10-11T07:17:37.579Z,874
2022-10-11T07:22:56.237Z,870
2022-10-11T07:27:59.193Z,868
2022-10-11T07:33:17.687Z,868
2022-10-11T07:38:36.376Z,866
2022-10-11T07:43:54.875Z,863
2022-10-11T07:49:13.618Z,861
2022-10-11T07:54:31.583Z,860
2022-10-11T07:59:50.401Z,855
2022-10-11T08:05:09.247Z,859
2022-10-11T08:10:27.749Z,856
2022-10-11T08:15:45.940Z,853
2022-10-11T08:21:04.167Z,850
2022-10-11T08:26:22.720Z,848
2022-10-11T08:31:41.482Z,851
2022-10-11T08:36:59.982Z,845
2022-10-11T08:42:18.215Z,846
2022-10-11T08:47:36.946Z,838
2022-10-11T08:52:55.694Z,833
2022-10-11T08:58:14.498Z,830
2022-10-11T09:03:32.397Z,825
2022-10-11T09:08:50.628Z,818
2022-10-11T09:14:08.543Z,821
2022-10-11T09:19:27.025Z,819
2022-10-11T09:24:45.218Z,813
2022-10-11T09:30:04.002Z,805
2022-10-11T09:35:22.473Z,803
2022-10-11T09:40:40.980Z,791
2022-10-11T09:45:59.473Z,786
2022-10-11T09:51:18.235Z,776
2022-10-11T09:56:36.702Z,764
2022-10-11T10:01:55.110Z,765
2022-10-11T10:07:14.964Z,760
2022-10-11T10:12:33.679Z,749
2022-10-11T10:17:51.911Z,747
2022-10-11T10:23:10.372Z,743
2022-10-11T10:28:28.643Z,744
2022-10-11T10:33:47.392Z,741
2022-10-11T10:39:05.637Z,741
2022-10-11T10:44:23.579Z,736
2022-10-11T10:49:53.500Z,735
2022-10-11T10:55:13.413Z,730
2022-10-11T11:00:32.198Z,731
2022-10-11T11:05:50.705Z,736
2022-10-11T11:11:09.189Z,736
2022-10-11T11:16:27.365Z,735
2022-10-11T11:21:45.866Z,730
2022-10-11T11:27:04.011Z,727
2022-10-11T11:32:22.203Z,722
2022-10-11T11:37:40.472Z,720
2022-10-11T11:42:59.211Z,715
2022-10-11T11:48:17.720Z,702
2022-10-11T11:53:35.967Z,697
2022-10-11T11:58:54.134Z,698
2022-10-11T12:04:12.934Z,698
2022-10-11T12:09:31.693Z,696
2022-10-11T12:14:49.873Z,703
2022-10-11T12:20:08.357Z,705
2022-10-11T12:25:26.594Z,703
2022-10-11T12:30:45.055Z,699
2022-10-11T12:36:05.807Z,699
2022-10-11T12:41:26.582Z,696
2022-10-11T12:46:45.019Z,689
2022-10-11T12:52:03.498Z,678
2022-10-11T12:57:22.304Z,678
2022-10-11T13:02:41.063Z,683
2022-10-11T13:07:59.551Z,678
2022-10-11T13:13:18.071Z,682
2022-10-11T13:18:36.239Z,676
2022-10-11T13:23:55.032Z,665
2022-10-11T13:29:13.266Z,684
2022-10-11T13:34:35.104Z,682
2022-10-11T13:39:53.930Z,679
2022-10-11T13:45:12.711Z,681
2022-10-11T13:50:30.915Z,681
2022-10-11T13:55:49.087Z,680
2022-10-11T14:01:07.654Z,679
2022-10-11T14:06:26.301Z,677
2022-10-11T14:11:44.793Z,679
2022-10-11T14:17:03.316Z,691
2022-10-11T14:22:21.215Z,695
2022-10-11T14:27:39.436Z,696
2022-10-11T14:32:57.945Z,695
2022-10-11T14:38:15.981Z,696
2022-10-11T14:43:34.753Z,699
2022-10-11T14:48:55.796Z,700
2022-10-11T14:54:15.047Z,696
2022-10-11T14:59:33.530Z,696
2022-10-11T15:04:52.039Z,700
2022-10-11T15:10:10.236Z,696
2022-10-11T15:15:28.980Z,698
2022-10-11T15:20:47.821Z,697
2022-10-11T15:26:06.092Z,690
2022-10-11T15:31:26.170Z,694
2022-10-11T15:36:44.701Z,692
2022-10-11T15:42:03.150Z,692
2022-10-11T15:47:21.911Z,692
2022-10-11T15:52:40.448Z,718
2022-10-11T15:57:58.609Z,729
2022-10-11T16:03:17.117Z,746
2022-10-11T16:08:35.344Z,754
2022-10-11T16:13:53.523Z,753
2022-10-11T16:19:12.296Z,758
2022-10-11T16:24:31.054Z,763
2022-10-11T16:29:49.539Z,776
2022-10-11T16:35:08.287Z,773
2022-10-11T16:40:27.050Z,775
2022-10-11T16:45:45.504Z,772
2022-10-11T16:51:03.997Z,772
2022-10-11T16:56:22.517Z,769
2022-10-11T17:01:41.043Z,777
2022-10-11T17:06:59.544Z,800
2022-10-11T17:12:18.054Z,832
2022-10-11T17:17:36.229Z,931
2022-10-11T17:22:55.044Z,995
2022-10-11T17:28:13.560Z,1014
2022-10-11T17:33:31.649Z,1044
2022-10-11T17:38:50.444Z,1059
2022-10-11T17:44:08.949Z,1091
2022-10-11T17:49:27.676Z,1089
2022-10-11T17:54:46.173Z,1101
2022-10-11T18:00:06.196Z,1093
2022-10-11T18:05:24.503Z,1083
2022-10-11T18:10:47.420Z,1051
2022-10-11T18:16:05.872Z,1031
2022-10-11T18:21:27.689Z,1011
2022-10-11T18:26:52.723Z,990
2022-10-11T18:32:11.236Z,965
2022-10-11T18:37:29.730Z,962
2022-10-11T18:42:48.466Z,969
2022-10-11T18:48:06.960Z,969
2022-10-11T18:53:25.432Z,971
2022-10-11T18:58:43.915Z,979
2022-10-11T19:04:02.385Z,985
2022-10-11T19:09:20.962Z,997
2022-10-11T19:14:39.729Z,1003
2022-10-11T19:19:58.253Z,1011
2022-10-11T19:25:16.477Z,1030
2022-10-11T19:30:34.630Z,1062
2022-10-11T19:35:53.179Z,1111
2022-10-11T19:41:11.622Z,882
2022-10-11T19:46:50.216Z,1066
2022-10-11T19:52:11.018Z,1137
2022-10-11T19:57:13.582Z,1172
2022-10-11T20:02:32.069Z,1200
2022-10-11T20:07:51.833Z,1239
2022-10-11T20:13:10.284Z,1269
2022-10-11T20:18:28.545Z,1276
2022-10-11T20:23:46.754Z,1273
2022-10-11T20:29:05.239Z,1105
2022-10-11T20:34:23.704Z,1237
2022-10-11T20:39:42.227Z,1308
2022-10-11T20:45:00.595Z,1329
2022-10-11T20:50:22.890Z,1331
2022-10-11T20:55:41.674Z,1347
2022-10-11T21:01:00.017Z,1368
2022-10-11T21:06:18.302Z,1390
2022-10-11T21:11:36.840Z,1421
2022-10-11T21:16:55.294Z,1445
2022-10-11T21:22:14.022Z,1464
2022-10-11T21:27:32.917Z,1422
2022-10-11T21:32:51.892Z,1389
2022-10-11T21:38:10.413Z,1359
2022-10-11T21:43:29.182Z,1329
2022-10-11T21:48:47.377Z,1344
2022-10-11T21:54:05.567Z,1374
2022-10-11T21:59:24.088Z,1375
2022-10-11T22:04:42.284Z,1373
2022-10-11T22:10:00.518Z,1363
2022-10-11T22:15:18.997Z,1351
2022-10-11T22:20:36.900Z,1354
2022-10-11T22:25:55.395Z,1332
2022-10-11T22:31:13.656Z,1339
2022-10-11T22:36:32.144Z,1346
2022-10-11T22:41:50.892Z,1356
2022-10-11T22:47:09.144Z,1363
2022-10-11T22:52:27.309Z,1369
2022-10-11T22:57:45.230Z,1380
2022-10-11T23:03:03.495Z,1386
2022-10-11T23:08:22.231Z,1379
2022-10-11T23:13:40.440Z,1383
2022-10-11T23:18:58.965Z,1387
2022-10-11T23:24:17.129Z,1386
2022-10-11T23:29:35.615Z,1383
2022-10-11T23:34:54.448Z,1395
2022-10-11T23:40:12.931Z,1425
2022-10-11T23:45:31.386Z,1440
2022-10-11T23:50:50.178Z,1469
2022-10-11T23:56:08.651Z,1496
